Time;durP1;ratioP1;P1;durP2;ratioP2;P2;SDS_P1;SDS_P2;PMS_P1;PMS_P2;Temp;Humidity;BMP_temperature;BMP_pressure;BME280_temperature;BME280_humidity;BME280_pressure;Samples;Min_cycle;Max_cycle;Signal;HPM_P1;HPM_P2
2023/09/27 00:00:36;;;;;;;10.57;9.68;;;14.10;88.90;;;;;;4976144;28;20189;-89
2023/09/27 00:03:03;;;;;;;12.68;10.77;;;14.00;88.90;;;;;;4975990;28;20212;-89
2023/09/27 00:05:29;;;;;;;15.90;11.20;;;14.10;89.00;;;;;;4975819;28;20289;-89
2023/09/27 00:07:56;;;;;;;12.52;11.23;;;14.10;89.40;;;;;;4975873;28;20214;-86
2023/09/27 00:10:21;;;;;;;12.52;11.30;;;14.10;89.60;;;;;;4976026;28;20206;-89
2023/09/27 00:12:48;;;;;;;11.75;10.82;;;14.10;89.60;;;;;;4976620;28;20179;-89
2023/09/27 00:15:14;;;;;;;11.70;10.45;;;14.10;89.70;;;;;;4975724;28;20195;-89
2023/09/27 00:17:41;;;;;;;12.23;10.98;;;14.10;89.80;;;;;;4976856;28;20171;-89
2023/09/27 00:20:15;;;;;;;12.30;10.90;;;14.10;89.80;;;;;;4976230;28;20191;-90
2023/09/27 00:22:42;;;;;;;12.35;10.73;;;14.10;89.70;;;;;;4975609;28;20714;-90
2023/09/27 00:25:08;;;;;;;12.40;11.35;;;14.10;89.60;;;;;;4975873;28;20205;-90
2023/09/27 00:27:35;;;;;;;12.30;11.20;;;14.10;89.50;;;;;;4976243;28;20186;-89
2023/09/27 00:30:01;;;;;;;13.75;10.43;;;14.10;89.30;;;;;;4975665;28;20199;-90
2023/09/27 00:32:27;;;;;;;13.20;10.82;;;14.00;89.30;;;;;;4975454;28;20171;-90
2023/09/27 00:34:53;;;;;;;12.77;10.95;;;14.00;89.10;;;;;;4975320;28;20633;-90
2023/09/27 00:37:18;;;;;;;15.73;11.32;;;14.00;89.20;;;;;;4975414;28;20174;-89
2023/09/27 00:39:44;;;;;;;12.25;11.02;;;14.00;89.40;;;;;;4975581;28;20270;-90
2023/09/27 00:42:09;;;;;;;14.63;11.02;;;14.00;89.30;;;;;;4975660;28;20175;-88
2023/09/27 00:44:35;;;;;;;11.07;10.18;;;13.90;89.10;;;;;;4975144;28;20290;-89
2023/09/27 00:47:03;;;;;;;11.40;10.25;;;13.90;89.00;;;;;;4976614;28;20202;-89
2023/09/27 00:49:29;;;;;;;11.48;10.45;;;13.90;88.90;;;;;;4976504;28;20207;-87
2023/09/27 00:51:54;;;;;;;11.48;10.55;;;13.80;88.80;;;;;;4975135;28;20190;-90
2023/09/27 00:54:20;;;;;;;10.52;9.63;;;13.80;88.60;;;;;;4974959;28;20745;-89
2023/09/27 00:56:47;;;;;;;10.85;9.85;;;13.70;88.50;;;;;;4976342;28;20181;-90
2023/09/27 00:59:15;;;;;;;10.30;9.45;;;13.70;88.40;;;;;;4975426;28;20222;-90
2023/09/27 01:01:45;;;;;;;10.35;9.32;;;13.60;88.30;;;;;;4974641;28;20185;-91
2023/09/27 01:04:15;;;;;;;10.80;10.00;;;13.60;88.20;;;;;;4974654;28;20202;-90
2023/09/27 01:06:46;;;;;;;10.43;9.52;;;13.50;88.10;;;;;;4975709;28;20628;-89
2023/09/27 01:09:12;;;;;;;10.82;9.95;;;13.50;88.00;;;;;;4975062;28;20207;-89
2023/09/27 01:11:39;;;;;;;12.05;10.95;;;13.50;88.00;;;;;;4975025;28;20330;-89
2023/09/27 01:14:05;;;;;;;12.50;10.95;;;13.50;87.90;;;;;;4974857;28;20261;-89
2023/09/27 01:16:32;;;;;;;11.80;10.90;;;13.40;87.70;;;;;;4974660;28;20190;-90
2023/09/27 01:19:02;;;;;;;12.00;11.10;;;13.50;87.60;;;;;;4974759;28;20182;-89
2023/09/27 01:21:27;;;;;;;12.10;11.10;;;13.30;87.50;;;;;;4975205;28;20211;-89
2023/09/27 01:23:53;;;;;;;12.30;11.40;;;13.30;87.50;;;;;;4974487;28;20195;-90
2023/09/27 01:26:20;;;;;;;13.43;11.10;;;13.30;87.40;;;;;;4975908;28;20182;-89
2023/09/27 01:28:46;;;;;;;11.98;10.98;;;13.30;87.40;;;;;;4974309;28;20233;-90
2023/09/27 01:31:12;;;;;;;12.60;11.57;;;13.20;87.30;;;;;;4974498;28;20206;-90
2023/09/27 01:33:38;;;;;;;11.93;10.82;;;13.20;87.30;;;;;;4974165;28;20199;-89
2023/09/27 01:36:03;;;;;;;13.52;12.10;;;13.10;87.30;;;;;;4975461;28;20205;-89
2023/09/27 01:38:32;;;;;;;11.43;10.52;;;13.10;87.40;;;;;;4975859;28;20241;-89
2023/09/27 01:40:58;;;;;;;11.37;10.27;;;13.00;87.40;;;;;;4974110;28;20245;-90
2023/09/27 01:43:24;;;;;;;16.50;11.15;;;13.00;87.40;;;;;;4973992;28;20190;-89
2023/09/27 01:45:50;;;;;;;11.13;10.33;;;13.00;87.40;;;;;;4974681;28;20201;-89
2023/09/27 01:48:15;;;;;;;12.30;10.30;;;13.00;87.40;;;;;;4973995;28;20504;-89
2023/09/27 01:50:41;;;;;;;11.77;10.67;;;13.00;87.40;;;;;;4973831;28;20206;-90
2023/09/27 01:53:07;;;;;;;12.07;10.70;;;13.00;87.30;;;;;;4974015;28;20174;-89
2023/09/27 01:55:33;;;;;;;15.38;12.32;;;12.90;87.40;;;;;;4973889;28;20198;-89
2023/09/27 01:58:00;;;;;;;14.50;12.82;;;12.90;87.90;;;;;;4973696;28;20186;-89
2023/09/27 02:00:25;;;;;;;13.63;12.45;;;13.10;88.80;;;;;;4974005;28;20269;-89
2023/09/27 02:02:55;;;;;;;18.13;12.97;;;13.10;89.10;;;;;;4973819;28;20668;-89
2023/09/27 02:05:21;;;;;;;13.77;12.38;;;13.10;89.40;;;;;;4973912;28;20206;-90
2023/09/27 02:07:47;;;;;;;13.88;12.57;;;13.00;89.60;;;;;;4973952;28;20273;-89
2023/09/27 02:10:12;;;;;;;14.80;13.27;;;13.00;89.70;;;;;;4973434;28;20572;-89
2023/09/27 02:12:39;;;;;;;14.03;12.63;;;13.00;89.80;;;;;;4974561;28;20182;-89
2023/09/27 02:15:05;;;;;;;15.77;12.67;;;13.00;89.90;;;;;;4973458;28;20288;-89
2023/09/27 02:17:31;;;;;;;14.50;13.10;;;12.90;90.00;;;;;;4974923;28;20179;-88
2023/09/27 02:19:56;;;;;;;13.95;12.48;;;12.80;90.20;;;;;;4974878;28;20198;-88
2023/09/27 02:22:23;;;;;;;13.77;12.43;;;12.80;90.30;;;;;;4973757;28;20175;-88
2023/09/27 02:24:48;;;;;;;13.80;12.40;;;12.90;90.20;;;;;;4975063;28;20190;-89
2023/09/27 02:27:14;;;;;;;13.48;12.27;;;12.90;90.00;;;;;;4973320;28;20612;-89
2023/09/27 02:29:41;;;;;;;13.27;12.02;;;12.80;89.90;;;;;;4973370;28;20202;-88
2023/09/27 02:32:07;;;;;;;14.10;12.93;;;12.80;90.00;;;;;;4973356;28;20269;-89
2023/09/27 02:34:35;;;;;;;14.83;13.30;;;12.80;90.20;;;;;;4974668;28;20222;-89
2023/09/27 02:37:01;;;;;;;12.97;11.77;;;12.90;90.50;;;;;;4973907;28;20185;-88
2023/09/27 02:39:28;;;;;;;13.97;12.57;;;12.80;90.40;;;;;;4973534;28;20182;-89
2023/09/27 02:41:57;;;;;;;13.80;12.70;;;12.80;90.40;;;;;;4973421;28;20210;-89
2023/09/27 02:44:23;;;;;;;14.53;13.10;;;12.80;90.20;;;;;;4973371;28;20207;-90
2023/09/27 02:46:51;;;;;;;14.07;12.60;;;12.80;90.10;;;;;;4974502;28;20178;-88
2023/09/27 02:49:16;;;;;;;19.80;18.38;;;12.80;90.00;;;;;;4974536;28;20693;-88
2023/09/27 02:51:42;;;;;;;21.03;19.50;;;12.70;89.80;;;;;;4973671;28;20221;-88
2023/09/27 02:54:07;;;;;;;22.27;20.43;;;12.70;89.70;;;;;;4973312;28;20205;-88
2023/09/27 02:56:33;;;;;;;22.80;20.70;;;12.70;89.60;;;;;;4974088;28;20261;-88
2023/09/27 02:58:58;;;;;;;22.33;20.30;;;12.50;89.40;;;;;;4974476;28;20685;-88
2023/09/27 03:01:28;;;;;;;20.63;19.03;;;12.50;89.40;;;;;;4973171;28;20202;-88
2023/09/27 03:03:55;;;;;;;20.10;18.60;;;12.50;89.40;;;;;;4973179;28;20198;-88
2023/09/27 03:06:21;;;;;;;19.93;18.43;;;12.40;89.40;;;;;;4975094;28;20175;-89
2023/09/27 03:08:48;;;;;;;19.93;18.33;;;12.40;89.30;;;;;;4973208;28;20171;-89
2023/09/27 03:11:13;;;;;;;19.93;18.23;;;12.30;89.30;;;;;;4974679;28;20225;-89
2023/09/27 03:13:40;;;;;;;21.37;19.87;;;12.30;89.10;;;;;;4972838;28;20273;-89
2023/09/27 03:16:06;;;;;;;23.33;21.60;;;12.30;89.10;;;;;;4972985;28;20182;-89
2023/09/27 03:18:32;;;;;;;13.73;12.57;;;12.30;89.30;;;;;;4972938;28;20178;-89
2023/09/27 03:20:58;;;;;;;13.87;12.63;;;12.30;89.30;;;;;;4972700;28;20290;-89
2023/09/27 03:23:27;;;;;;;20.57;18.67;;;12.30;89.30;;;;;;4974961;28;20186;-89
2023/09/27 03:25:57;;;;;;;20.07;18.60;;;12.30;89.20;;;;;;4976863;28;20667;-89
2023/09/27 03:28:23;;;;;;;23.57;21.73;;;12.30;89.10;;;;;;4976637;28;20303;-89
2023/09/27 03:30:49;;;;;;;14.07;12.60;;;12.30;89.00;;;;;;4976804;28;20695;-88
2023/09/27 03:33:14;;;;;;;13.00;11.80;;;12.20;89.00;;;;;;4977842;28;20175;-89
2023/09/27 03:35:41;;;;;;;22.47;20.47;;;12.30;88.90;;;;;;4976508;28;20209;-89
2023/09/27 03:38:06;;;;;;;23.03;21.07;;;12.20;88.90;;;;;;4977661;28;20603;-89
2023/09/27 03:40:32;;;;;;;18.40;16.57;;;12.20;88.90;;;;;;4976526;28;20183;-89
2023/09/27 03:42:58;;;;;;;16.57;14.83;;;12.30;89.50;;;;;;4976566;28;20183;-89
2023/09/27 03:45:23;;;;;;;16.43;14.87;;;12.30;89.90;;;;;;4977556;28;20218;-89
2023/09/27 03:47:49;;;;;;;15.37;13.93;;;12.30;90.10;;;;;;4976420;28;20776;-90
2023/09/27 03:50:15;;;;;;;15.00;13.70;;;12.30;90.10;;;;;;4977676;28;20717;-89
2023/09/27 03:52:41;;;;;;;14.03;12.83;;;12.20;90.00;;;;;;4977808;28;20166;-89
2023/09/27 03:55:11;;;;;;;18.67;14.23;;;12.20;89.80;;;;;;4976107;28;20194;-89
2023/09/27 03:57:37;;;;;;;19.57;13.83;;;12.20;89.80;;;;;;4976517;28;20655;-89
2023/09/27 04:00:11;;;;;;;16.07;14.47;;;12.20;89.70;;;;;;4976047;28;20189;-89
2023/09/27 04:02:36;;;;;;;15.63;14.03;;;12.30;89.80;;;;;;4976026;28;20258;-89
2023/09/27 04:05:04;;;;;;;15.30;14.00;;;12.20;89.80;;;;;;4976289;28;20293;-89
2023/09/27 04:07:29;;;;;;;15.83;14.47;;;12.20;89.90;;;;;;4975860;28;20662;-89
2023/09/27 04:09:55;;;;;;;16.73;15.27;;;12.20;89.90;;;;;;4975638;28;20237;-89
2023/09/27 04:12:20;;;;;;;16.37;14.83;;;12.20;89.90;;;;;;4975997;28;20171;-89
2023/09/27 04:14:46;;;;;;;16.40;14.97;;;12.20;89.90;;;;;;4976460;28;20277;-90
2023/09/27 04:17:11;;;;;;;15.70;14.47;;;12.20;89.90;;;;;;4975666;28;20210;-89
2023/09/27 04:19:37;;;;;;;15.73;14.20;;;12.20;89.80;;;;;;4976390;28;20237;-89
2023/09/27 04:22:02;;;;;;;14.63;13.40;;;12.20;89.70;;;;;;4977035;28;20265;-89
2023/09/27 04:24:28;;;;;;;14.03;12.87;;;12.20;89.70;;;;;;4977240;28;20203;-89
2023/09/27 04:26:54;;;;;;;14.53;13.13;;;12.10;89.60;;;;;;4976813;28;20244;-89
2023/09/27 04:29:20;;;;;;;16.03;14.43;;;12.10;89.50;;;;;;4975426;28;20203;-89
2023/09/27 04:31:46;;;;;;;15.50;14.10;;;12.10;89.50;;;;;;4975551;28;20185;-90
2023/09/27 04:34:11;;;;;;;15.63;14.23;;;12.10;89.40;;;;;;4975581;28;20683;-90
2023/09/27 04:36:37;;;;;;;15.03;13.73;;;12.00;89.30;;;;;;4974758;28;20313;-88
2023/09/27 04:39:07;;;;;;;15.03;13.63;;;12.00;89.40;;;;;;4975338;28;20343;-89
2023/09/27 04:41:33;;;;;;;16.60;13.60;;;12.00;89.30;;;;;;4976410;28;20175;-89
2023/09/27 04:43:58;;;;;;;15.83;14.17;;;11.90;89.30;;;;;;4975163;28;20202;-89
2023/09/27 04:46:24;;;;;;;14.07;12.77;;;11.80;89.20;;;;;;4975249;28;20183;-89
2023/09/27 04:48:50;;;;;;;13.33;12.13;;;11.80;89.10;;;;;;4975145;28;20186;-89
2023/09/27 04:51:16;;;;;;;14.87;13.47;;;11.80;89.00;;;;;;4975015;28;20209;-89
2023/09/27 04:53:41;;;;;;;14.70;13.23;;;11.70;89.00;;;;;;4975091;28;20638;-89
2023/09/27 04:56:10;;;;;;;15.00;13.50;;;11.70;89.00;;;;;;4976508;28;20241;-89
2023/09/27 04:58:35;;;;;;;14.10;12.53;;;11.70;89.00;;;;;;4975020;28;20185;-89
2023/09/27 05:01:01;;;;;;;13.77;12.63;;;11.70;89.10;;;;;;4974916;28;20175;-89
2023/09/27 05:03:26;;;;;;;13.27;12.00;;;11.70;89.00;;;;;;4974987;28;20224;-89
2023/09/27 05:05:52;;;;;;;13.87;12.77;;;11.60;88.90;;;;;;4974667;28;20655;-89
2023/09/27 05:08:17;;;;;;;14.30;12.80;;;11.60;88.90;;;;;;4976178;28;20179;-89
2023/09/27 05:10:43;;;;;;;14.50;13.17;;;11.60;88.80;;;;;;4975971;28;20194;-89
2023/09/27 05:13:08;;;;;;;13.80;12.40;;;11.50;88.80;;;;;;4975984;28;20178;-89
2023/09/27 05:15:34;;;;;;;14.27;13.07;;;11.60;88.70;;;;;;4975040;28;20578;-89
2023/09/27 05:18:00;;;;;;;13.87;12.77;;;11.60;88.60;;;;;;4974579;28;20202;-89
2023/09/27 05:20:25;;;;;;;13.47;12.43;;;11.50;88.50;;;;;;4974616;28;20285;-89
2023/09/27 05:22:54;;;;;;;15.67;14.17;;;11.50;88.50;;;;;;4975459;28;20240;-89
2023/09/27 05:25:19;;;;;;;14.70;13.40;;;11.50;88.40;;;;;;4974692;28;20202;-89
2023/09/27 05:27:45;;;;;;;16.70;15.20;;;11.50;88.40;;;;;;4974456;28;20185;-89
2023/09/27 05:30:11;;;;;;;20.27;18.30;;;11.50;88.60;;;;;;4975717;28;20202;-89
2023/09/27 05:32:37;;;;;;;19.93;17.73;;;11.50;88.80;;;;;;4975594;28;20661;-89
2023/09/27 05:35:04;;;;;;;19.57;17.63;;;11.60;89.10;;;;;;4974380;28;20230;-89
2023/09/27 05:37:33;;;;;;;26.03;18.27;;;11.70;89.20;;;;;;4974265;28;20613;-89
2023/09/27 05:39:58;;;;;;;23.40;21.50;;;11.70;89.50;;;;;;4974395;28;20186;-89
2023/09/27 05:42:24;;;;;;;20.47;18.37;;;11.70;89.80;;;;;;4974125;28;20714;-89
2023/09/27 05:44:50;;;;;;;21.73;19.63;;;11.80;89.90;;;;;;4973947;28;20575;-88
2023/09/27 05:47:16;;;;;;;22.70;20.43;;;12.00;90.30;;;;;;4975407;28;20262;-89
2023/09/27 05:49:42;;;;;;;22.87;20.67;;;12.20;90.70;;;;;;4973943;28;20293;-90
2023/09/27 05:52:12;;;;;;;25.83;23.30;;;12.30;91.10;;;;;;4974165;28;20179;-89
2023/09/27 05:54:39;;;;;;;25.80;23.10;;;12.30;91.20;;;;;;4974244;28;20217;-89
2023/09/27 05:57:06;;;;;;;28.53;25.67;;;12.50;91.60;;;;;;4974066;28;20178;-88
2023/09/27 05:59:32;;;;;;;26.37;23.97;;;12.70;91.90;;;;;;4975347;28;20171;-89
2023/09/27 06:01:58;;;;;;;26.70;24.10;;;12.80;92.00;;;;;;4973850;28;20533;-89
2023/09/27 06:04:24;;;;;;;31.23;25.03;;;12.80;92.10;;;;;;4975046;28;20195;-89
2023/09/27 06:06:50;;;;;;;27.93;24.80;;;12.80;92.30;;;;;;4974295;28;20668;-89
2023/09/27 06:09:16;;;;;;;26.67;24.13;;;12.80;92.50;;;;;;4974762;28;20173;-89
2023/09/27 06:11:42;;;;;;;26.43;23.83;;;12.80;92.50;;;;;;4975006;28;20175;-89
2023/09/27 06:14:10;;;;;;;24.77;22.27;;;12.80;92.60;;;;;;4974054;28;20202;-89
2023/09/27 06:16:39;;;;;;;23.27;21.07;;;12.80;92.80;;;;;;4973650;28;20182;-89
2023/09/27 06:19:05;;;;;;;25.30;22.47;;;12.80;92.80;;;;;;4973789;28;20217;-89
2023/09/27 06:21:31;;;;;;;28.00;25.03;;;12.70;92.90;;;;;;4973608;28;20563;-89
2023/09/27 06:23:57;;;;;;;28.23;25.57;;;12.70;93.00;;;;;;4973507;28;20277;-89
2023/09/27 06:26:22;;;;;;;25.00;22.43;;;12.80;93.10;;;;;;4974644;28;20214;-89
2023/09/27 06:28:48;;;;;;;25.10;22.60;;;12.90;93.30;;;;;;4973608;28;20206;-89
2023/09/27 06:31:14;;;;;;;26.10;23.50;;;12.90;93.30;;;;;;4973225;28;20202;-89
2023/09/27 06:33:39;;;;;;;25.13;22.73;;;12.90;93.40;;;;;;4973457;28;20246;-89
2023/09/27 06:36:08;;;;;;;26.97;22.60;;;13.00;93.60;;;;;;4973434;28;20186;-89
2023/09/27 06:38:34;;;;;;;28.27;25.27;;;13.10;93.60;;;;;;4974646;28;20181;-89
2023/09/27 06:41:01;;;;;;;26.33;23.67;;;13.00;93.60;;;;;;4973520;28;20179;-89
2023/09/27 06:43:28;;;;;;;25.80;22.80;;;13.00;93.60;;;;;;4975411;28;20633;-89
2023/09/27 06:45:54;;;;;;;27.20;23.70;;;13.00;93.60;;;;;;4974679;28;20269;-90
2023/09/27 06:48:20;;;;;;;29.03;24.70;;;13.20;93.80;;;;;;4974661;28;20664;-88
2023/09/27 06:50:47;;;;;;;29.50;26.43;;;13.40;94.00;;;;;;4974192;28;20202;-88
2023/09/27 06:53:13;;;;;;;28.73;25.67;;;13.60;94.00;;;;;;4973092;28;20183;-89
2023/09/27 06:55:39;;;;;;;28.57;25.53;;;13.70;94.00;;;;;;4972863;28;20202;-88
2023/09/27 06:58:04;;;;;;;30.87;27.53;;;13.80;94.10;;;;;;4973828;28;20192;-89
2023/09/27 07:00:30;;;;;;;33.00;28.00;;;13.80;94.10;;;;;;4977033;28;20185;-89
2023/09/27 07:02:56;;;;;;;35.23;28.67;;;14.00;94.20;;;;;;4976919;28;20647;-88
2023/09/27 07:05:23;;;;;;;29.03;25.97;;;14.10;94.20;;;;;;4976792;28;20690;-89
2023/09/27 07:07:49;;;;;;;30.40;27.17;;;14.20;94.10;;;;;;4978056;28;20183;-88
2023/09/27 07:10:15;;;;;;;31.87;26.40;;;14.20;94.10;;;;;;4977908;28;20202;-88
2023/09/27 07:12:41;;;;;;;30.70;27.47;;;14.20;94.10;;;;;;4978248;28;20170;-88
2023/09/27 07:15:13;;;;;;;32.40;26.93;;;14.30;94.10;;;;;;4977908;28;20569;-89
2023/09/27 07:17:39;;;;;;;32.97;28.52;;;14.40;94.00;;;;;;4977071;28;20664;-89
2023/09/27 07:20:24;;;;;;;33.03;25.77;;;14.50;94.00;;;;;;4977969;28;20217;-88
2023/09/27 07:22:50;;;;;;;30.07;26.97;;;14.50;93.90;;;;;;4976890;28;20179;-87
2023/09/27 07:25:18;;;;;;;30.75;27.08;;;14.60;93.70;;;;;;4976430;28;20195;-88
2023/09/27 07:27:46;;;;;;;31.00;26.70;;;14.70;93.50;;;;;;4976615;28;20547;-88
2023/09/27 07:30:11;;;;;;;28.93;25.97;;;14.80;93.40;;;;;;4977816;28;20682;-88
2023/09/27 07:32:39;;;;;;;32.95;26.95;;;14.90;92.90;;;;;;4976487;28;20179;-89
2023/09/27 07:35:09;;;;;;;28.55;25.60;;;15.00;92.80;;;;;;4976298;28;20294;-88
2023/09/27 07:37:37;;;;;;;27.77;24.73;;;15.10;92.70;;;;;;4976538;28;20182;-88
2023/09/27 07:40:11;;;;;;;27.48;24.05;;;15.20;92.60;;;;;;4977672;28;20177;-88
2023/09/27 07:42:45;;;;;;;27.95;24.08;;;15.20;92.30;;;;;;4976554;28;20170;-88
2023/09/27 07:45:21;;;;;;;26.75;24.10;;;15.30;92.00;;;;;;4976283;28;20198;-88
2023/09/27 07:47:48;;;;;;;27.00;24.38;;;15.40;91.80;;;;;;4976254;28;20253;-89
2023/09/27 07:50:15;;;;;;;35.75;24.45;;;15.50;91.70;;;;;;4977320;28;20202;-89
2023/09/27 07:52:40;;;;;;;27.67;24.70;;;15.60;91.20;;;;;;4977806;28;20174;-90
2023/09/27 07:55:09;;;;;;;26.65;23.77;;;15.60;90.70;;;;;;4976069;28;20198;-89
2023/09/27 07:57:36;;;;;;;25.77;23.15;;;15.80;90.60;;;;;;4977242;28;20167;-89
2023/09/27 08:00:08;;;;;;;25.60;21.77;;;15.90;89.70;;;;;;4976265;28;20201;-88
2023/09/27 08:02:34;;;;;;;24.98;22.48;;;16.10;89.60;;;;;;4977241;28;20151;-88
2023/09/27 08:05:02;;;;;;;24.95;22.33;;;16.20;89.40;;;;;;4976183;28;20203;-90
2023/09/27 08:07:28;;;;;;;25.95;22.77;;;16.30;88.40;;;;;;4976324;28;20182;-89
2023/09/27 08:09:54;;;;;;;23.25;21.15;;;16.40;88.30;;;;;;4975638;28;20211;-88
2023/09/27 08:12:24;;;;;;;25.48;22.75;;;16.50;87.70;;;;;;4975800;28;20175;-89
2023/09/27 08:14:50;;;;;;;24.38;21.73;;;16.70;88.00;;;;;;4976028;28;20202;-88
2023/09/27 08:17:15;;;;;;;22.90;20.67;;;16.70;87.30;;;;;;4975593;28;20186;-88
2023/09/27 08:19:41;;;;;;;21.48;19.48;;;16.70;87.50;;;;;;4975386;28;20229;-89
2023/09/27 08:22:09;;;;;;;22.63;20.35;;;16.80;87.40;;;;;;4977114;28;20631;-89
2023/09/27 08:24:35;;;;;;;23.80;21.33;;;16.90;87.30;;;;;;4976715;28;20202;-88
2023/09/27 08:27:01;;;;;;;23.13;20.73;;;16.90;86.70;;;;;;4975449;28;20189;-88
2023/09/27 08:29:27;;;;;;;23.23;20.85;;;17.00;86.80;;;;;;4975367;28;20199;-88
2023/09/27 08:32:00;;;;;;;24.98;20.65;;;17.10;86.70;;;;;;4975984;28;20265;-89
2023/09/27 08:34:28;;;;;;;23.20;20.90;;;17.10;86.70;;;;;;4980259;28;20202;-90
2023/09/27 08:36:54;;;;;;;23.73;21.38;;;17.10;86.70;;;;;;4979947;28;20230;-91
2023/09/27 08:39:20;;;;;;;23.98;21.38;;;17.30;86.40;;;;;;4981310;28;20194;-91
2023/09/27 08:41:46;;;;;;;23.35;20.92;;;17.30;85.40;;;;;;4978090;28;20181;-91
2023/09/27 08:44:12;;;;;;;22.63;20.50;;;17.50;85.00;;;;;;4978300;28;20198;-91
2023/09/27 08:46:39;;;;;;;24.15;21.20;;;17.60;84.50;;;;;;4978665;28;20202;-90
2023/09/27 08:49:06;;;;;;;22.85;20.88;;;17.70;84.70;;;;;;4978888;28;20186;-91
2023/09/27 08:51:31;;;;;;;23.55;20.13;;;17.80;84.30;;;;;;4980206;28;20568;-91
2023/09/27 08:53:57;;;;;;;22.75;20.45;;;18.00;84.10;;;;;;4979696;28;20281;-90
2023/09/27 08:56:24;;;;;;;24.35;21.80;;;18.10;84.00;;;;;;4980017;28;20668;-91
2023/09/27 08:58:50;;;;;;;24.40;21.98;;;18.20;82.80;;;;;;4979147;28;20210;-91
2023/09/27 09:01:16;;;;;;;27.60;20.23;;;18.30;82.80;;;;;;4980344;28;20217;-90
2023/09/27 09:03:42;;;;;;;23.02;20.00;;;18.60;82.50;;;;;;4980402;28;20195;-91
2023/09/27 09:06:11;;;;;;;21.80;19.70;;;18.80;82.70;;;;;;4979716;28;20183;-90
2023/09/27 09:08:41;;;;;;;20.45;18.58;;;18.80;83.20;;;;;;4977927;28;20174;-90
2023/09/27 09:11:16;;;;;;;22.90;20.88;;;19.00;83.10;;;;;;4992763;28;20223;-91
2023/09/27 09:14:03;;;;;;;25.33;22.88;;;19.10;81.70;;;;;;4994021;28;20646;-91
2023/09/27 09:16:39;;;;;;;24.48;21.63;;;19.30;81.00;;;;;;4990099;28;20181;-92
2023/09/27 09:19:24;;;;;;;23.52;21.33;;;19.30;79.40;;;;;;4985209;28;20187;-91
2023/09/27 09:22:49;;;;;;;24.65;22.10;;;19.50;79.90;;;;;;4975382;28;20670;-89
2023/09/27 09:26:09;;;;;;;;;;;;;;;;;;;;;
2023/09/27 09:40:43;;;;;;;21.70;19.65;;;20.40;77.50;;;;;;4869894;28;20199;-90
2023/09/27 09:43:28;;;;;;;27.85;25.65;;;20.40;75.90;;;;;;4952605;28;20191;-89
2023/09/27 09:46:14;;;;;;;32.55;30.02;;;20.70;76.10;;;;;;4949501;28;20194;-90
2023/09/27 09:48:41;;;;;;;30.52;27.65;;;20.70;74.10;;;;;;4974483;28;20634;-89
2023/09/27 09:51:31;;;;;;;20.45;18.52;;;20.80;75.00;;;;;;4974295;28;20202;-90
2023/09/27 09:53:59;;;;;;;21.10;19.05;;;21.10;75.40;;;;;;4974464;28;20194;-90
2023/09/27 09:56:30;;;;;;;28.40;25.83;;;21.00;74.20;;;;;;4974178;28;20210;-90
2023/09/27 09:59:13;;;;;;;28.95;26.75;;;21.10;75.20;;;;;;4974968;28;20250;-89
2023/09/27 10:01:42;;;;;;;20.63;18.70;;;21.20;75.00;;;;;;4975845;28;20212;-90
2023/09/27 10:04:08;;;;;;;19.63;18.02;;;21.00;74.60;;;;;;4974543;28;20194;-90
2023/09/27 10:07:18;;;;;;;26.60;24.42;;;21.10;75.60;;;;;;4974627;28;20174;-90
2023/09/27 10:09:48;;;;;;;31.52;29.23;;;21.10;75.40;;;;;;4956160;28;20301;-90
2023/09/27 10:19:28;;;;;;;21.63;19.13;;;20.70;76.60;;;;;;4955821;28;20175;-91
2023/09/27 10:22:28;;;;;;;21.67;19.75;;;20.50;75.90;;;;;;4974422;28;20209;-90
2023/09/27 10:25:16;;;;;;;21.77;19.73;;;20.70;76.50;;;;;;4974172;28;20194;-92
2023/09/27 10:28:11;;;;;;;21.58;19.40;;;20.60;76.00;;;;;;4972746;28;20613;-90
2023/09/27 10:30:49;;;;;;;19.00;17.52;;;20.60;75.90;;;;;;4973865;28;20207;-90
2023/09/27 10:41:43;;;;;;;21.45;19.75;;;21.20;74.60;;;;;;4934748;29;20224;-90
2023/09/27 10:44:34;;;;;;;24.13;21.88;;;21.20;73.40;;;;;;4900789;29;20693;-89
2023/09/27 10:47:14;;;;;;;23.13;21.02;;;21.30;71.40;;;;;;4935475;29;20247;-90
2023/09/27 10:49:58;;;;;;;22.73;20.85;;;21.30;72.90;;;;;;4935253;29;20290;-89
2023/09/27 10:52:38;;;;;;;21.77;19.98;;;21.50;73.30;;;;;;4934673;29;20652;-90
2023/09/27 10:55:25;;;;;;;23.77;21.80;;;21.70;72.10;;;;;;4934992;29;20204;-89
2023/09/27 10:57:54;;;;;;;19.77;18.05;;;21.70;72.60;;;;;;4934931;29;20223;-89
2023/09/27 11:00:21;;;;;;;20.75;19.10;;;22.00;73.20;;;;;;4935520;29;20652;-89
2023/09/27 11:02:50;;;;;;;21.30;19.15;;;22.20;71.90;;;;;;4935650;29;20185;-89
2023/09/27 11:05:26;;;;;;;20.30;18.70;;;22.30;71.40;;;;;;4935519;29;20256;-89
2023/09/27 11:07:54;;;;;;;22.17;20.33;;;22.30;70.30;;;;;;4935144;29;20180;-89
2023/09/27 11:10:31;;;;;;;23.13;21.17;;;22.20;70.30;;;;;;4934466;29;20208;-89
2023/09/27 11:13:17;;;;;;;22.95;20.75;;;22.40;68.10;;;;;;4934563;29;20183;-89
2023/09/27 11:15:43;;;;;;;19.70;18.17;;;22.60;70.00;;;;;;4935316;28;20255;-89
2023/09/27 11:18:12;;;;;;;21.63;19.73;;;22.70;69.00;;;;;;4934706;29;20181;-90
2023/09/27 11:20:42;;;;;;;22.33;20.42;;;22.70;69.80;;;;;;4935445;29;20188;-89
2023/09/27 11:23:15;;;;;;;21.50;19.88;;;22.80;68.20;;;;;;4934413;29;20232;-89
2023/09/27 11:25:44;;;;;;;20.98;19.33;;;22.70;67.90;;;;;;4934337;29;20200;-90
2023/09/27 11:28:32;;;;;;;21.10;19.48;;;23.00;68.40;;;;;;4934587;29;20184;-89
2023/09/27 11:31:12;;;;;;;23.00;21.30;;;23.30;66.60;;;;;;4935366;29;20661;-89
2023/09/27 11:33:47;;;;;;;23.88;22.00;;;23.50;65.60;;;;;;4934967;29;20178;-90
2023/09/27 11:36:15;;;;;;;25.88;23.88;;;23.70;65.70;;;;;;4934336;29;20179;-89
2023/09/27 11:38:55;;;;;;;25.05;22.95;;;23.80;63.30;;;;;;4935413;29;20176;-90
2023/09/27 11:41:29;;;;;;;23.33;21.42;;;23.80;64.50;;;;;;4935100;29;20274;-89
2023/09/27 11:43:58;;;;;;;25.63;23.20;;;23.80;64.90;;;;;;4935923;29;20281;-90
2023/09/27 11:46:31;;;;;;;24.38;22.33;;;23.40;64.80;;;;;;4937994;29;20184;-89
2023/09/27 11:49:10;;;;;;;23.48;21.88;;;23.40;65.40;;;;;;4938139;29;20210;-89
2023/09/27 11:51:39;;;;;;;22.75;21.15;;;23.50;65.90;;;;;;4938961;29;20250;-89
2023/09/27 11:54:05;;;;;;;22.17;20.60;;;23.60;65.40;;;;;;4937942;29;20543;-90
2023/09/27 11:56:33;;;;;;;24.92;22.90;;;23.70;64.90;;;;;;4938170;29;20188;-89
2023/09/27 11:59:19;;;;;;;23.58;21.58;;;23.80;63.70;;;;;;4939422;29;20176;-90
2023/09/27 12:01:45;;;;;;;23.23;21.42;;;23.90;64.30;;;;;;4937794;29;20208;-89
2023/09/27 12:04:18;;;;;;;24.15;21.98;;;24.10;65.40;;;;;;4939119;29;20224;-90
2023/09/27 12:07:03;;;;;;;23.85;21.77;;;24.20;63.80;;;;;;4903517;29;20696;-90
2023/09/27 12:09:36;;;;;;;23.33;21.52;;;24.00;63.90;;;;;;4953519;29;20651;-91
2023/09/27 12:12:12;;;;;;;24.13;22.23;;;24.00;62.00;;;;;;4937516;29;20266;-91
2023/09/27 12:14:41;;;;;;;23.10;21.00;;;24.40;62.60;;;;;;4938330;29;20590;-90
2023/09/27 12:17:43;;;;;;;21.50;19.80;;;23.90;62.10;;;;;;4937771;29;20203;-90
2023/09/27 12:20:09;;;;;;;21.20;19.58;;;24.10;60.90;;;;;;4939497;29;20211;-90
2023/09/27 12:22:35;;;;;;;22.45;20.45;;;23.80;60.00;;;;;;4938952;29;20618;-89
2023/09/27 12:25:01;;;;;;;23.45;21.52;;;23.70;60.60;;;;;;4937563;29;20199;-91
2023/09/27 12:27:26;;;;;;;22.83;20.88;;;24.00;63.20;;;;;;4937319;29;20196;-89
2023/09/27 12:29:55;;;;;;;22.00;19.92;;;24.40;62.00;;;;;;4938395;29;20200;-91
2023/09/27 12:32:20;;;;;;;21.42;19.83;;;24.50;58.40;;;;;;4937691;29;20172;-89
2023/09/27 12:34:47;;;;;;;21.02;19.25;;;24.50;58.80;;;;;;4937433;29;20195;-88
2023/09/27 12:37:12;;;;;;;21.08;19.48;;;24.60;60.70;;;;;;4938546;29;20168;-89
2023/09/27 12:39:38;;;;;;;21.52;19.30;;;24.50;61.60;;;;;;4939086;29;20561;-89
2023/09/27 12:42:04;;;;;;;21.90;20.10;;;24.50;61.70;;;;;;4939088;29;20180;-88
2023/09/27 12:44:29;;;;;;;20.48;18.85;;;24.50;61.20;;;;;;4937363;29;20200;-89
2023/09/27 12:46:55;;;;;;;22.27;20.35;;;24.50;62.80;;;;;;4938493;29;20184;-89
2023/09/27 12:49:20;;;;;;;21.88;19.88;;;24.50;60.60;;;;;;4937620;29;20176;-88
2023/09/27 12:51:46;;;;;;;23.15;21.20;;;24.40;60.40;;;;;;4937738;29;20193;-88
2023/09/27 12:54:13;;;;;;;22.58;20.80;;;24.40;60.30;;;;;;4937058;29;20196;-88
2023/09/27 12:56:39;;;;;;;22.02;20.42;;;24.30;61.80;;;;;;4936030;29;20180;-89
2023/09/27 12:59:04;;;;;;;22.25;20.63;;;24.20;61.10;;;;;;4936922;29;20191;-88
2023/09/27 13:01:30;;;;;;;23.08;21.15;;;24.00;62.20;;;;;;4936949;29;20238;-88
2023/09/27 13:03:55;;;;;;;30.77;28.60;;;24.20;63.00;;;;;;4936572;29;20359;-88